createdAt,value
2019-04-27T00:00:04.419Z,83.20
2019-04-27T00:01:05.193Z,82.69
2019-04-27T00:02:05.755Z,83.41
2019-04-27T00:03:06.025Z,83.51
2019-04-27T00:04:04.413Z,83.10
2019-04-27T00:05:04.375Z,83.41
2019-04-27T00:06:07.504Z,82.59
2019-04-27T00:07:04.344Z,82.59
2019-04-27T00:08:04.337Z,83.10
2019-04-27T00:09:07.530Z,82.90
2019-04-27T00:10:04.342Z,83.00
2019-04-27T00:11:08.531Z,82.90
2019-04-27T00:12:05.705Z,82.39
2019-04-27T00:13:05.833Z,82.28
2019-04-27T00:14:04.267Z,82.49
2019-04-27T00:15:04.258Z,82.49
2019-04-27T00:16:09.809Z,82.28
2019-04-27T00:17:05.240Z,82.79
2019-04-27T00:18:04.227Z,83.04
2019-04-27T00:19:04.214Z,82.32
2019-04-27T00:20:04.466Z,82.39
2019-04-27T00:21:04.211Z,82.53
2019-04-27T00:22:04.185Z,82.42
2019-04-27T00:23:04.173Z,82.79
2019-04-27T00:24:04.166Z,82.01
2019-04-27T00:25:04.153Z,81.20
2019-04-27T00:26:04.164Z,82.42
2019-04-27T00:27:04.129Z,83.04
2019-04-27T00:28:05.422Z,82.93
2019-04-27T00:29:04.107Z,82.83
2019-04-27T00:30:04.100Z,83.04
2019-04-27T00:31:04.100Z,82.22
2019-04-27T00:32:04.371Z,82.73
2019-04-27T00:33:05.311Z,82.53
2019-04-27T00:34:04.062Z,83.04
2019-04-27T00:35:04.049Z,81.71
2019-04-27T00:36:04.034Z,82.53
2019-04-27T00:37:04.024Z,83.45
2019-04-27T00:38:04.031Z,83.04
2019-04-27T00:39:05.246Z,81.91
2019-04-27T00:40:03.992Z,82.22
2019-04-27T00:41:03.979Z,83.14
2019-04-27T00:42:03.971Z,81.50
2019-04-27T00:43:04.007Z,81.91
2019-04-27T00:44:03.951Z,82.22
2019-04-27T00:45:05.434Z,81.71
2019-04-27T00:46:04.152Z,81.54
2019-04-27T00:47:03.915Z,81.81
2019-04-27T00:48:03.914Z,80.88
2019-04-27T00:49:03.927Z,81.91
2019-04-27T00:50:03.886Z,81.81
2019-04-27T00:51:04.350Z,82.26
2019-04-27T00:52:03.866Z,82.56
2019-04-27T00:53:03.855Z,82.56
2019-04-27T00:54:04.700Z,82.63
2019-04-27T00:55:03.850Z,83.28
2019-04-27T00:56:04.021Z,82.56
2019-04-27T00:57:03.812Z,82.46
2019-04-27T00:58:04.256Z,83.39
2019-04-27T00:59:03.786Z,83.07
2019-04-27T01:00:05.156Z,83.49
2019-04-27T01:01:04.147Z,81.95
2019-04-27T01:02:03.867Z,82.97
2019-04-27T01:03:03.902Z,83.18
2019-04-27T01:04:03.888Z,82.87
2019-04-27T01:05:05.772Z,83.07
2019-04-27T01:06:03.740Z,82.87
2019-04-27T01:07:03.741Z,82.67
2019-04-27T01:08:03.935Z,82.97
2019-04-27T01:09:03.698Z,82.97
2019-04-27T01:10:05.344Z,83.18
2019-04-27T01:11:03.704Z,83.49
2019-04-27T01:12:03.736Z,82.97
2019-04-27T01:13:03.637Z,83.12
2019-04-27T01:14:03.910Z,82.81
2019-04-27T01:15:03.749Z,84.55
2019-04-27T01:16:03.604Z,83.73
2019-04-27T01:17:03.613Z,83.01
2019-04-27T01:18:11.962Z,82.64
2019-04-27T01:19:04.578Z,83.01
2019-04-27T01:20:03.560Z,82.84
2019-04-27T01:21:03.550Z,83.05
2019-04-27T01:22:03.566Z,84.08
2019-04-27T01:23:03.531Z,83.67
2019-04-27T01:24:03.518Z,82.75
2019-04-27T01:25:03.507Z,83.67
2019-04-27T01:26:03.496Z,83.56
2019-04-27T01:27:03.484Z,83.36
2019-04-27T01:28:03.499Z,82.75
2019-04-27T01:29:03.468Z,82.84
2019-04-27T01:30:03.454Z,83.15
2019-04-27T01:31:03.441Z,82.03
2019-04-27T01:32:03.431Z,82.33
2019-04-27T01:33:03.447Z,82.54
2019-04-27T01:34:03.414Z,82.43
2019-04-27T01:35:03.399Z,81.62
2019-04-27T01:36:03.391Z,82.03
2019-04-27T01:37:03.400Z,82.43
2019-04-27T01:38:03.375Z,81.92
2019-04-27T01:39:03.397Z,82.23
2019-04-27T01:40:03.349Z,79.66
2019-04-27T01:41:03.334Z,81.92
2019-04-27T01:42:03.324Z,82.43
2019-04-27T01:43:03.343Z,81.71
2019-04-27T01:44:03.303Z,82.13
2019-04-27T01:45:03.310Z,81.51
2019-04-27T01:46:03.285Z,82.43
2019-04-27T01:47:03.281Z,82.64
2019-04-27T01:48:03.258Z,82.23
2019-04-27T01:49:03.249Z,82.57
2019-04-27T01:50:03.276Z,82.89
2019-04-27T01:51:03.233Z,82.33
2019-04-27T01:52:03.216Z,82.99
2019-04-27T01:53:03.209Z,82.27
2019-04-27T01:54:03.223Z,81.71
2019-04-27T01:55:03.185Z,81.30
2019-04-27T01:56:03.175Z,81.51
2019-04-27T01:57:04.306Z,81.51
2019-04-27T01:58:03.154Z,81.41
2019-04-27T01:59:03.144Z,81.92
2019-04-27T02:00:03.159Z,82.03
2019-04-27T02:01:03.120Z,82.47
2019-04-27T02:02:03.113Z,81.71
2019-04-27T02:03:03.098Z,81.76
2019-04-27T02:04:03.088Z,82.13
2019-04-27T02:05:03.104Z,82.03
2019-04-27T02:06:03.066Z,82.17
2019-04-27T02:07:03.055Z,82.57
2019-04-27T02:08:03.044Z,82.68
2019-04-27T02:09:03.059Z,82.06
2019-04-27T02:10:03.050Z,82.43
2019-04-27T02:11:03.012Z,83.19
2019-04-27T02:12:03.002Z,82.27
2019-04-27T02:13:02.992Z,82.54
2019-04-27T02:14:02.981Z,82.57
2019-04-27T02:15:02.992Z,82.06
2019-04-27T02:16:02.959Z,82.27
2019-04-27T02:17:02.950Z,82.68
2019-04-27T02:18:02.937Z,83.29
2019-04-27T02:19:02.925Z,82.68
2019-04-27T02:20:02.915Z,82.64
2019-04-27T02:21:02.924Z,82.78
2019-04-27T02:22:02.900Z,83.19
2019-04-27T02:23:02.887Z,83.29
2019-04-27T02:24:02.871Z,83.09
2019-04-27T02:25:02.863Z,82.68
2019-04-27T02:26:02.870Z,82.99
2019-04-27T02:27:02.842Z,83.50
2019-04-27T02:28:02.829Z,83.70
2019-04-27T02:29:02.819Z,82.78
2019-04-27T02:30:02.811Z,83.29
2019-04-27T02:31:02.818Z,83.09
2019-04-27T02:32:03.032Z,83.13
2019-04-27T02:33:02.775Z,83.29
2019-04-27T02:34:02.774Z,83.91
2019-04-27T02:35:02.753Z,82.99
2019-04-27T02:36:02.766Z,83.09
2019-04-27T02:37:02.990Z,83.03
2019-04-27T02:38:02.730Z,84.42
2019-04-27T02:39:02.717Z,83.95
2019-04-27T02:40:02.701Z,83.54
2019-04-27T02:41:02.715Z,84.32
2019-04-27T02:42:02.681Z,84.77
2019-04-27T02:43:02.669Z,85.08
2019-04-27T02:44:02.669Z,84.77
2019-04-27T02:45:02.658Z,84.56
2019-04-27T02:46:02.636Z,84.56
2019-04-27T02:47:02.670Z,84.98
2019-04-27T02:48:02.630Z,84.88
2019-04-27T02:49:06.289Z,85.18
2019-04-27T02:50:02.595Z,85.12
2019-04-27T02:51:02.588Z,85.08
2019-04-27T02:52:02.618Z,84.88
2019-04-27T02:53:03.165Z,86.25
2019-04-27T02:54:02.553Z,85.02
2019-04-27T02:55:02.542Z,85.02
2019-04-27T02:56:02.529Z,85.02
2019-04-27T02:57:02.520Z,84.61
2019-04-27T02:58:02.534Z,84.67
2019-04-27T02:59:02.496Z,85.08
2019-04-27T03:00:02.507Z,84.81
2019-04-27T03:01:02.478Z,84.30
2019-04-27T03:02:02.473Z,84.61
2019-04-27T03:03:02.579Z,84.50
2019-04-27T03:04:02.446Z,84.81
2019-04-27T03:05:02.435Z,84.61
2019-04-27T03:06:02.426Z,84.81
2019-04-27T03:07:02.412Z,84.71
2019-04-27T03:08:02.399Z,85.22
2019-04-27T03:09:02.405Z,84.91
2019-04-27T03:10:02.876Z,84.91
2019-04-27T03:11:02.367Z,84.91
2019-04-27T03:12:02.374Z,85.02
2019-04-27T03:13:02.350Z,84.91
2019-04-27T03:14:04.250Z,85.33
2019-04-27T03:15:02.326Z,84.71
2019-04-27T03:16:02.321Z,84.91
2019-04-27T03:17:02.319Z,84.81
2019-04-27T03:18:02.314Z,85.02
2019-04-27T03:19:13.460Z,85.02
2019-04-27T03:20:03.269Z,84.91
2019-04-27T03:21:02.265Z,84.91
2019-04-27T03:22:02.252Z,85.12
2019-04-27T03:23:02.242Z,85.02
2019-04-27T03:24:02.253Z,85.22
2019-04-27T03:25:02.216Z,85.22
2019-04-27T03:26:02.211Z,85.02
2019-04-27T03:27:02.195Z,84.91
2019-04-27T03:28:02.601Z,85.53
2019-04-27T03:29:02.173Z,85.53
2019-04-27T03:30:02.242Z,86.05
2019-04-27T03:31:02.934Z,85.43
2019-04-27T03:32:02.331Z,85.02
2019-04-27T03:33:03.373Z,86.05
2019-04-27T03:34:05.120Z,85.84
2019-04-27T03:35:03.435Z,84.81
2019-04-27T03:36:03.086Z,85.33
2019-04-27T03:37:02.092Z,85.53
2019-04-27T03:38:02.075Z,85.12
2019-04-27T03:39:02.074Z,85.43
2019-04-27T03:40:02.067Z,85.22
2019-04-27T03:41:02.104Z,86.15
2019-04-27T03:42:02.052Z,84.71
2019-04-27T03:43:02.028Z,86.56
2019-04-27T03:44:02.023Z,86.66
2019-04-27T03:45:02.002Z,86.21
2019-04-27T03:46:02.002Z,86.66
2019-04-27T03:47:02.007Z,86.66
2019-04-27T03:48:01.970Z,86.56
2019-04-27T03:49:01.967Z,85.74
2019-04-27T03:50:01.970Z,85.33
2019-04-27T03:51:01.937Z,85.39
2019-04-27T03:52:03.049Z,85.84
2019-04-27T03:53:01.933Z,86.77
2019-04-27T03:54:01.906Z,86.05
2019-04-27T03:55:01.898Z,85.94
2019-04-27T03:56:01.883Z,85.84
2019-04-27T03:57:02.574Z,85.22
2019-04-27T03:58:01.861Z,85.53
2019-04-27T03:59:01.856Z,85.84
2019-04-27T04:00:01.883Z,84.61
2019-04-27T04:01:01.842Z,85.53
2019-04-27T04:02:02.397Z,85.28
2019-04-27T04:03:01.836Z,85.22
2019-04-27T04:04:01.798Z,85.22
2019-04-27T04:05:01.826Z,84.56
2019-04-27T04:06:01.774Z,84.36
2019-04-27T04:07:01.767Z,84.77
2019-04-27T04:08:01.783Z,84.98
2019-04-27T04:09:01.742Z,83.44
2019-04-27T04:10:01.739Z,85.28
2019-04-27T04:11:01.729Z,85.60
2019-04-27T04:12:02.322Z,85.08
2019-04-27T04:13:01.969Z,84.98
2019-04-27T04:14:01.693Z,84.77
2019-04-27T04:15:01.752Z,84.88
2019-04-27T04:16:01.699Z,84.88
2019-04-27T04:17:02.880Z,85.18
2019-04-27T04:18:01.687Z,85.18
2019-04-27T04:19:01.634Z,84.77
2019-04-27T04:20:02.028Z,85.08
2019-04-27T04:21:01.614Z,84.88
2019-04-27T04:22:01.613Z,84.98
2019-04-27T04:23:03.245Z,84.98
2019-04-27T04:24:01.602Z,85.08
2019-04-27T04:25:01.580Z,84.56
2019-04-27T04:26:01.558Z,84.77
2019-04-27T04:27:01.549Z,85.14
2019-04-27T04:28:01.540Z,84.77
2019-04-27T04:29:01.551Z,85.28
2019-04-27T04:30:01.534Z,85.49
2019-04-27T04:31:01.507Z,83.23
2019-04-27T04:32:01.495Z,83.03
2019-04-27T04:33:01.487Z,84.47
2019-04-27T04:34:01.492Z,83.64
2019-04-27T04:35:01.537Z,84.36
2019-04-27T04:36:01.462Z,83.40
2019-04-27T04:37:01.442Z,84.88
2019-04-27T04:38:01.432Z,85.04
2019-04-27T04:39:01.441Z,85.14
2019-04-27T04:40:01.428Z,84.32
2019-04-27T04:41:01.400Z,83.81
2019-04-27T04:42:01.387Z,84.74
2019-04-27T04:43:03.344Z,85.04
2019-04-27T04:44:01.365Z,84.53
2019-04-27T04:45:01.397Z,85.46
2019-04-27T04:46:01.351Z,85.14
2019-04-27T04:47:01.334Z,85.14
2019-04-27T04:48:01.324Z,83.91
2019-04-27T04:49:01.331Z,85.14
2019-04-27T04:50:11.096Z,84.84
2019-04-27T04:51:02.294Z,85.04
2019-04-27T04:52:01.284Z,85.55
2019-04-27T04:53:01.275Z,81.14
2019-04-27T04:54:01.260Z,85.00
2019-04-27T04:55:02.708Z,84.42
2019-04-27T04:56:01.263Z,85.00
2019-04-27T04:57:01.225Z,85.11
2019-04-27T04:58:01.215Z,84.94
2019-04-27T04:59:01.206Z,85.11
2019-04-27T05:00:01.215Z,83.09
2019-04-27T05:01:01.857Z,82.47
2019-04-27T05:02:02.365Z,78.33
2019-04-27T05:03:01.162Z,82.23
2019-04-27T05:04:01.150Z,84.39
2019-04-27T05:05:01.141Z,84.28
2019-04-27T05:06:01.130Z,84.04
2019-04-27T05:07:01.147Z,84.76
2019-04-27T05:08:01.105Z,84.14
2019-04-27T05:09:01.096Z,83.46
2019-04-27T05:10:01.085Z,81.41
2019-04-27T05:11:01.078Z,84.55
2019-04-27T05:12:01.090Z,83.83
2019-04-27T05:13:01.051Z,80.14
2019-04-27T05:14:01.562Z,80.86
2019-04-27T05:15:01.045Z,83.63
2019-04-27T05:16:01.043Z,81.48
2019-04-27T05:17:01.027Z,83.90
2019-04-27T05:18:01.002Z,83.28
2019-04-27T05:19:00.995Z,84.61
2019-04-27T05:20:00.979Z,83.63
2019-04-27T05:21:00.967Z,82.87
2019-04-27T05:22:00.974Z,85.85
2019-04-27T05:23:00.944Z,86.36
2019-04-27T05:24:00.953Z,86.46
2019-04-27T05:25:00.922Z,86.19
2019-04-27T05:26:00.911Z,84.52
2019-04-27T05:27:00.923Z,80.21
2019-04-27T05:28:00.891Z,83.18
2019-04-27T05:29:00.896Z,85.33
2019-04-27T05:30:00.881Z,85.74
2019-04-27T05:31:00.871Z,84.72
2019-04-27T05:32:00.849Z,86.46
2019-04-27T05:33:00.901Z,84.72
2019-04-27T05:34:00.829Z,85.54
2019-04-27T05:35:00.817Z,83.59
2019-04-27T05:36:00.808Z,86.36
2019-04-27T05:37:01.146Z,86.66
2019-04-27T05:38:07.046Z,85.74
2019-04-27T05:39:01.789Z,87.18
2019-04-27T05:40:00.764Z,85.23
2019-04-27T05:41:00.755Z,86.46
2019-04-27T05:42:00.743Z,87.08
2019-04-27T05:43:00.730Z,88.00
2019-04-27T05:44:03.269Z,87.08
2019-04-27T05:45:01.710Z,87.18
2019-04-27T05:46:01.145Z,88.00
2019-04-27T05:47:00.692Z,83.69
2019-04-27T05:48:00.801Z,84.61
2019-04-27T05:49:06.088Z,82.56
2019-04-27T05:50:01.652Z,82.87
2019-04-27T05:51:01.997Z,85.54
2019-04-27T05:52:00.635Z,84.82
2019-04-27T05:53:00.621Z,85.74
2019-04-27T05:54:00.610Z,85.13
2019-04-27T05:55:00.623Z,86.36
2019-04-27T05:56:00.592Z,83.69
2019-04-27T05:57:00.576Z,87.18
2019-04-27T05:58:00.568Z,85.13
2019-04-27T05:59:00.557Z,87.38
2019-04-27T06:00:02.295Z,80.92
2019-04-27T06:01:00.578Z,82.56
2019-04-27T06:02:00.528Z,85.03
2019-04-27T06:03:00.520Z,86.46
2019-04-27T06:04:00.502Z,86.52
2019-04-27T06:05:00.492Z,82.97
2019-04-27T06:06:01.736Z,87.08
2019-04-27T06:07:01.024Z,87.70
2019-04-27T06:08:00.457Z,81.43
2019-04-27T06:09:00.458Z,86.32
2019-04-27T06:10:00.436Z,85.09
2019-04-27T06:11:00.425Z,87.34
2019-04-27T06:12:00.433Z,87.85
2019-04-27T06:13:00.404Z,86.63
2019-04-27T06:14:00.403Z,85.39
2019-04-27T06:15:00.382Z,86.93
2019-04-27T06:16:00.376Z,87.85
2019-04-27T06:17:00.382Z,86.73
2019-04-27T06:18:00.359Z,85.30
2019-04-27T06:19:00.338Z,83.25
2019-04-27T06:20:00.331Z,83.65
2019-04-27T06:21:00.317Z,86.52
2019-04-27T06:22:01.339Z,87.34
2019-04-27T06:23:00.319Z,87.85
2019-04-27T06:24:00.285Z,80.68
2019-04-27T06:25:00.557Z,85.80
2019-04-27T06:26:01.760Z,86.48
2019-04-27T06:27:00.258Z,84.68
2019-04-27T06:28:00.263Z,84.99
2019-04-27T06:29:00.231Z,87.71
2019-04-27T06:30:00.230Z,88.17
2019-04-27T06:31:00.215Z,84.78
2019-04-27T06:32:00.202Z,86.69
2019-04-27T06:33:00.226Z,84.47
2019-04-27T06:34:00.184Z,84.84
2019-04-27T06:35:00.166Z,87.20
2019-04-27T06:36:01.822Z,86.79
2019-04-27T06:37:00.158Z,80.44
2019-04-27T06:38:00.149Z,88.33
2019-04-27T06:39:00.150Z,85.66
2019-04-27T06:40:00.121Z,86.90
2019-04-27T06:41:01.483Z,89.25
2019-04-27T06:42:01.328Z,89.56
2019-04-27T06:43:00.110Z,87.20
2019-04-27T06:44:00.125Z,90.58
2019-04-27T06:45:00.210Z,89.15
2019-04-27T06:46:00.057Z,90.48
2019-04-27T06:47:00.035Z,89.15
2019-04-27T06:48:00.025Z,87.61
2019-04-27T06:49:00.036Z,88.94
2019-04-27T06:50:00.015Z,88.84
2019-04-27T06:51:05.030Z,89.36
2019-04-27T06:52:00.983Z,90.17
2019-04-27T06:52:59.973Z,88.43
2019-04-27T06:54:00.005Z,90.07
2019-04-27T06:55:00.603Z,91.67
2019-04-27T06:55:59.980Z,90.79
2019-04-27T06:56:59.933Z,91.05
2019-04-27T06:57:59.918Z,91.36
2019-04-27T06:58:59.907Z,89.66
2019-04-27T06:59:59.923Z,84.19
2019-04-27T07:00:59.886Z,89.00
2019-04-27T07:02:00.870Z,90.03
2019-04-27T07:02:59.865Z,86.44
2019-04-27T07:03:59.939Z,87.57
2019-04-27T07:04:59.872Z,89.00
2019-04-27T07:05:59.830Z,89.42
2019-04-27T07:07:01.735Z,87.16
2019-04-27T07:07:59.810Z,89.51
2019-04-27T07:08:59.899Z,87.37
2019-04-27T07:09:59.832Z,89.31
2019-04-27T07:10:59.826Z,88.59
2019-04-27T07:11:59.767Z,88.39
2019-04-27T07:12:59.842Z,87.88
2019-04-27T07:13:59.757Z,85.52
2019-04-27T07:14:59.738Z,84.91
2019-04-27T07:15:59.791Z,85.52
2019-04-27T07:16:59.714Z,88.29
2019-04-27T07:17:59.722Z,89.62
2019-04-27T07:18:59.692Z,89.31
2019-04-27T07:19:59.708Z,88.70
2019-04-27T07:20:59.687Z,89.00
2019-04-27T07:21:59.678Z,86.34
2019-04-27T07:22:59.651Z,89.98
2019-04-27T07:23:59.791Z,88.49
2019-04-27T07:24:59.630Z,89.78
2019-04-27T07:25:59.940Z,91.05
2019-04-27T07:26:59.835Z,90.09
2019-04-27T07:27:59.595Z,89.51
2019-04-27T07:28:59.862Z,84.77
2019-04-27T07:30:01.755Z,89.06
2019-04-27T07:30:59.581Z,87.77
2019-04-27T07:31:59.802Z,89.11
2019-04-27T07:33:00.369Z,90.09
2019-04-27T07:33:59.665Z,89.89
2019-04-27T07:34:59.525Z,90.30
2019-04-27T07:35:59.538Z,90.19
2019-04-27T07:36:59.866Z,91.31
2019-04-27T07:37:59.488Z,90.91
2019-04-27T07:38:59.995Z,90.30
2019-04-27T07:39:59.473Z,90.84
2019-04-27T07:40:59.454Z,89.17
2019-04-27T07:41:59.464Z,91.31
2019-04-27T07:42:59.482Z,91.42
2019-04-27T07:43:59.424Z,90.60
2019-04-27T07:44:59.573Z,90.09
2019-04-27T07:45:59.402Z,92.03
2019-04-27T07:46:59.502Z,92.75
2019-04-27T07:47:59.381Z,90.50
2019-04-27T07:48:59.568Z,90.09
2019-04-27T07:50:01.512Z,89.58
2019-04-27T07:50:59.403Z,88.86
2019-04-27T07:51:59.363Z,90.97
2019-04-27T07:52:59.330Z,89.89
2019-04-27T07:53:59.323Z,88.71
2019-04-27T07:54:59.309Z,89.89
2019-04-27T07:55:59.373Z,89.43
2019-04-27T07:56:59.287Z,88.92
2019-04-27T07:57:59.772Z,89.03
2019-04-27T07:58:59.605Z,87.18
2019-04-27T07:59:59.717Z,91.38
2019-04-27T08:00:59.549Z,91.27
2019-04-27T08:01:59.233Z,90.05
2019-04-27T08:02:59.240Z,91.27
2019-04-27T08:03:59.210Z,91.89
2019-04-27T08:04:59.663Z,90.77
2019-04-27T08:05:59.186Z,93.01
2019-04-27T08:06:59.620Z,92.19
2019-04-27T08:08:00.261Z,92.91
2019-04-27T08:08:59.430Z,94.14
2019-04-27T08:10:01.554Z,92.50
2019-04-27T08:10:59.581Z,92.81
2019-04-27T08:11:59.124Z,91.48
2019-04-27T08:12:59.742Z,92.19
2019-04-27T08:13:59.118Z,93.93
2019-04-27T08:15:00.013Z,94.55
2019-04-27T08:15:59.154Z,94.65
2019-04-27T08:16:59.417Z,92.30
2019-04-27T08:17:59.343Z,90.77
2019-04-27T08:18:59.981Z,90.82
2019-04-27T08:19:59.589Z,92.15
2019-04-27T08:20:59.162Z,88.78
2019-04-27T08:21:59.594Z,86.94
2019-04-27T08:22:59.689Z,93.18
2019-04-27T08:23:59.017Z,92.87
2019-04-27T08:24:59.488Z,92.97
2019-04-27T08:25:59.007Z,90.41
2019-04-27T08:26:59.446Z,92.25
2019-04-27T08:28:00.284Z,91.13
2019-04-27T08:28:58.972Z,91.74
2019-04-27T08:29:58.941Z,91.03
2019-04-27T08:31:00.362Z,89.59
2019-04-27T08:31:58.905Z,91.23
2019-04-27T08:32:59.332Z,91.13
2019-04-27T08:34:00.064Z,92.46
2019-04-27T08:34:59.477Z,92.56
2019-04-27T08:35:59.132Z,91.91
2019-04-27T08:37:00.803Z,92.11
2019-04-27T08:37:59.382Z,91.03
2019-04-27T08:38:58.955Z,88.98
2019-04-27T08:39:59.276Z,89.97
2019-04-27T08:40:59.300Z,91.19
2019-04-27T08:41:59.490Z,90.88
2019-04-27T08:42:59.196Z,92.42
2019-04-27T08:43:58.832Z,91.29
2019-04-27T08:44:59.431Z,90.21
2019-04-27T08:46:00.355Z,89.97
2019-04-27T08:46:59.615Z,92.11
2019-04-27T08:47:59.454Z,92.21
2019-04-27T08:48:58.813Z,92.52
2019-04-27T08:49:59.182Z,89.56
2019-04-27T08:50:59.353Z,89.56
2019-04-27T08:51:59.948Z,88.23
2019-04-27T08:53:00.660Z,87.41
2019-04-27T08:53:59.188Z,87.41
2019-04-27T08:54:59.400Z,88.53
2019-04-27T08:55:59.199Z,89.41
2019-04-27T08:56:59.639Z,90.27
2019-04-27T08:57:58.815Z,89.92
2019-04-27T08:58:59.478Z,90.64
2019-04-27T08:59:59.678Z,87.57
2019-04-27T09:00:59.102Z,90.17
2019-04-27T09:01:58.826Z,89.41
2019-04-27T09:02:59.485Z,88.08
2019-04-27T09:03:59.271Z,89.72
2019-04-27T09:04:59.619Z,88.90
2019-04-27T09:05:59.133Z,87.88
2019-04-27T09:06:59.784Z,86.44
2019-04-27T09:07:59.698Z,89.31
2019-04-27T09:08:59.307Z,88.79
2019-04-27T09:09:59.610Z,89.72
2019-04-27T09:10:59.020Z,89.11
2019-04-27T09:11:59.480Z,88.39
2019-04-27T09:12:58.924Z,89.00
2019-04-27T09:13:58.979Z,89.41
2019-04-27T09:14:59.194Z,87.77
2019-04-27T09:16:00.061Z,88.08
2019-04-27T09:17:02.255Z,88.49
2019-04-27T09:17:58.888Z,87.37
2019-04-27T09:18:59.753Z,88.59
2019-04-27T09:19:59.163Z,87.98
2019-04-27T09:20:58.963Z,88.90
2019-04-27T09:22:10.352Z,88.49
2019-04-27T09:22:59.377Z,87.98
2019-04-27T09:23:59.310Z,86.18
2019-04-27T09:24:59.486Z,88.18
2019-04-27T09:25:59.470Z,86.38
2019-04-27T09:26:59.618Z,86.22
2019-04-27T09:27:59.755Z,86.43
2019-04-27T09:28:59.589Z,86.67
2019-04-27T09:29:59.025Z,86.05
2019-04-27T09:30:58.867Z,84.83
2019-04-27T09:31:59.629Z,85.38
2019-04-27T09:32:58.250Z,84.83
2019-04-27T09:33:58.260Z,85.17
2019-04-27T09:34:58.233Z,86.51
2019-04-27T09:35:58.217Z,86.44
2019-04-27T09:36:58.467Z,86.96
2019-04-27T09:37:58.198Z,88.08
2019-04-27T09:38:58.203Z,87.77
2019-04-27T09:39:58.178Z,88.18
2019-04-27T09:40:58.285Z,88.12
2019-04-27T09:41:58.160Z,88.53
2019-04-27T09:42:58.143Z,87.51
2019-04-27T09:43:58.154Z,87.51
2019-04-27T09:44:58.121Z,86.69
2019-04-27T09:45:58.110Z,86.96
2019-04-27T09:46:58.101Z,87.51
2019-04-27T09:47:58.088Z,88.12
2019-04-27T09:48:58.081Z,86.90
2019-04-27T09:49:58.088Z,87.71
2019-04-27T09:50:58.059Z,87.92
2019-04-27T09:51:58.049Z,87.71
2019-04-27T09:52:58.035Z,87.82
2019-04-27T09:53:58.029Z,86.96
2019-04-27T09:54:58.035Z,88.23
2019-04-27T09:55:58.003Z,88.08
2019-04-27T09:56:57.994Z,87.77
2019-04-27T09:57:57.980Z,87.57
2019-04-27T09:58:57.970Z,87.47
2019-04-27T09:59:57.985Z,87.94
2019-04-27T10:00:57.954Z,87.84
2019-04-27T10:01:57.937Z,86.57
2019-04-27T10:02:57.927Z,86.40
2019-04-27T10:03:57.917Z,86.46
2019-04-27T10:04:57.910Z,85.44
2019-04-27T10:05:58.354Z,86.22
2019-04-27T10:06:57.886Z,86.12
2019-04-27T10:07:57.873Z,87.61
2019-04-27T10:08:57.865Z,86.90
2019-04-27T10:09:57.852Z,87.10
2019-04-27T10:10:57.871Z,87.77
2019-04-27T10:11:57.846Z,86.55
2019-04-27T10:12:57.822Z,84.91
2019-04-27T10:13:57.810Z,84.71
2019-04-27T10:14:57.806Z,82.77
2019-04-27T10:15:57.829Z,82.77
2019-04-27T10:16:57.779Z,83.07
2019-04-27T10:17:57.874Z,82.05
2019-04-27T10:18:57.757Z,80.62
2019-04-27T10:19:57.747Z,82.77
2019-04-27T10:21:01.862Z,83.48
2019-04-27T10:21:57.745Z,82.26
2019-04-27T10:22:57.749Z,83.18
2019-04-27T10:23:57.704Z,82.77
2019-04-27T10:24:57.701Z,81.54
2019-04-27T10:25:57.681Z,79.70
2019-04-27T10:26:57.690Z,80.52
2019-04-27T10:27:57.660Z,79.39
2019-04-27T10:28:57.655Z,78.58
2019-04-27T10:29:58.536Z,78.48
2019-04-27T10:30:57.627Z,78.88
2019-04-27T10:31:57.639Z,79.50
2019-04-27T10:32:57.611Z,79.19
2019-04-27T10:33:57.597Z,78.52
2019-04-27T10:34:57.591Z,78.68
2019-04-27T10:35:57.576Z,80.32
2019-04-27T10:36:57.567Z,81.34
2019-04-27T10:37:57.572Z,79.70
2019-04-27T10:38:57.542Z,78.99
2019-04-27T10:39:57.532Z,77.76
2019-04-27T10:40:57.523Z,76.84
2019-04-27T10:41:57.509Z,75.10
2019-04-27T10:42:57.522Z,77.45
2019-04-27T10:43:57.490Z,78.58
2019-04-27T10:44:57.478Z,76.84
2019-04-27T10:45:57.466Z,76.94
2019-04-27T10:46:57.462Z,78.11
2019-04-27T10:47:57.469Z,78.38
2019-04-27T10:48:57.464Z,77.04
2019-04-27T10:49:57.425Z,78.41
2019-04-27T10:50:57.424Z,78.72
2019-04-27T10:51:57.430Z,79.50
2019-04-27T10:52:59.324Z,77.19
2019-04-27T10:53:57.414Z,76.37
2019-04-27T10:54:57.538Z,76.88
2019-04-27T10:55:57.360Z,78.04
2019-04-27T10:56:57.350Z,79.57
2019-04-27T10:57:57.349Z,80.08
2019-04-27T10:58:57.330Z,80.19
2019-04-27T10:59:57.349Z,81.41
2019-04-27T11:00:58.417Z,81.24
2019-04-27T11:01:57.312Z,81.65
2019-04-27T11:02:58.351Z,82.68
2019-04-27T11:03:57.475Z,84.38
2019-04-27T11:04:57.272Z,82.13
2019-04-27T11:05:57.272Z,80.08
2019-04-27T11:06:57.243Z,80.69
2019-04-27T11:07:57.236Z,82.20
2019-04-27T11:08:57.227Z,80.19
2019-04-27T11:09:57.209Z,79.88
2019-04-27T11:10:57.228Z,81.72
2019-04-27T11:11:57.198Z,80.19
2019-04-27T11:12:57.202Z,80.97
2019-04-27T11:14:00.710Z,81.93
2019-04-27T11:14:57.184Z,84.07
2019-04-27T11:15:57.144Z,82.64
2019-04-27T11:16:57.140Z,82.64
2019-04-27T11:17:57.123Z,82.43
2019-04-27T11:18:58.723Z,84.03
2019-04-27T11:19:57.127Z,83.93
2019-04-27T11:20:57.120Z,82.09
2019-04-27T11:21:57.090Z,81.58
2019-04-27T11:23:07.258Z,80.97
2019-04-27T11:23:58.071Z,82.70
2019-04-27T11:24:57.049Z,82.70
2019-04-27T11:25:57.063Z,83.59
2019-04-27T11:26:57.027Z,83.42
2019-04-27T11:27:57.810Z,83.28
2019-04-27T11:28:57.005Z,81.65
2019-04-27T11:29:56.994Z,81.24
2019-04-27T11:30:57.037Z,81.34
2019-04-27T11:31:56.975Z,81.07
2019-04-27T11:32:59.207Z,81.27
2019-04-27T11:33:56.955Z,82.91
2019-04-27T11:34:56.943Z,82.29
2019-04-27T11:35:56.954Z,81.58
2019-04-27T11:36:56.918Z,82.29
2019-04-27T11:37:56.909Z,84.07
2019-04-27T11:38:56.897Z,81.62
2019-04-27T11:39:56.888Z,81.93
2019-04-27T11:40:56.879Z,81.31
2019-04-27T11:41:56.888Z,80.53
2019-04-27T11:42:57.323Z,79.71
2019-04-27T11:43:56.846Z,80.02
2019-04-27T11:44:58.339Z,79.64
2019-04-27T11:45:56.828Z,80.88
2019-04-27T11:46:56.837Z,80.67
2019-04-27T11:47:57.128Z,82.04
2019-04-27T11:48:58.411Z,82.76
2019-04-27T11:49:57.933Z,83.88
2019-04-27T11:50:56.767Z,83.37
2019-04-27T11:51:56.816Z,82.96
2019-04-27T11:52:56.804Z,83.06
2019-04-27T11:53:56.736Z,81.79
2019-04-27T11:54:56.726Z,80.57
2019-04-27T11:55:56.726Z,81.49
2019-04-27T11:56:56.702Z,82.10
2019-04-27T11:57:56.722Z,81.76
2019-04-27T11:58:56.699Z,79.44
2019-04-27T11:59:58.088Z,78.83
2019-04-27T12:00:56.661Z,80.83
2019-04-27T12:01:56.648Z,80.53
2019-04-27T12:02:56.852Z,78.79
2019-04-27T12:03:56.635Z,80.02
2019-04-27T12:04:56.624Z,81.24
2019-04-27T12:06:00.059Z,81.35
2019-04-27T12:06:56.615Z,75.24
2019-04-27T12:07:56.615Z,79.13
2019-04-27T12:08:56.573Z,80.36
2019-04-27T12:09:56.567Z,81.56
2019-04-27T12:10:56.558Z,78.42
2019-04-27T12:12:06.769Z,79.54
2019-04-27T12:12:57.574Z,81.45
2019-04-27T12:13:56.521Z,82.89
2019-04-27T12:14:56.509Z,79.71
2019-04-27T12:15:56.506Z,79.41
2019-04-27T12:16:56.502Z,78.34
2019-04-27T12:17:56.488Z,80.39
2019-04-27T12:18:56.530Z,80.60
2019-04-27T12:19:56.456Z,78.65
2019-04-27T12:20:56.456Z,76.91
2019-04-27T12:21:56.616Z,76.09
2019-04-27T12:22:56.423Z,75.89
2019-04-27T12:23:56.438Z,75.59
2019-04-27T12:24:56.405Z,75.14
2019-04-27T12:25:56.453Z,75.55
2019-04-27T12:26:57.435Z,74.93
2019-04-27T12:27:56.371Z,76.98
2019-04-27T12:28:56.384Z,76.26
2019-04-27T12:29:56.352Z,78.61
2019-04-27T12:30:56.354Z,73.20
2019-04-27T12:31:56.345Z,74.73
2019-04-27T12:32:56.338Z,74.80
2019-04-27T12:33:56.340Z,74.90
2019-04-27T12:34:56.591Z,73.44
2019-04-27T12:35:56.904Z,70.37
2019-04-27T12:36:56.278Z,70.47
2019-04-27T12:37:56.275Z,71.59
2019-04-27T12:38:56.674Z,73.94
2019-04-27T12:39:57.653Z,69.32
2019-04-27T12:40:56.586Z,70.54
2019-04-27T12:41:56.226Z,72.75
2019-04-27T12:42:56.218Z,72.72
2019-04-27T12:43:56.238Z,69.96
2019-04-27T12:44:56.205Z,69.25
2019-04-27T12:45:56.183Z,63.71
2019-04-27T12:47:02.309Z,66.60
2019-04-27T12:47:57.158Z,67.52
2019-04-27T12:48:57.244Z,67.79
2019-04-27T12:49:57.733Z,67.69
2019-04-27T12:50:56.429Z,67.29
2019-04-27T12:51:56.127Z,65.95